Terminal Aerodrome Forecast
Issued by NWS Sterling, VA

Current Version | Previous Version | Text Only | Print | Product List | Glossary On
Versions: 1 2 3 4 5 6 7 8 9 10 11 12 13 14
000
FTUS41 KLWX 252327
TAFMRB
TAF
KMRB 252327Z 2600/2624 15003KT P6SM SKC
     FM260600 VRB03KT 5SM BR SKC
     FM261200 00000KT P6SM SKC
     FM261600 16006KT P6SM SKC=

USA.gov is the U.S. government's official web portal to all federal, state and local government web resources and services.